Weather at Coyote Run Airport

Public forecast

Using degrees Fahrenheit for public forecast. Weather courtesy of forecast.io.

Closest aviation weather report (METAR) to Coyote Run Airport

Report is more than 6 hours old.

Closest report is Mountain Home Air Force Base, 8.9 nm (16.6 km) WSW.

2022/11/14 14:56 (retrieved 2 years ago)

KMUO 141456Z AUTO 10003KT 10SM CLR M09/M10 A3035 RMK AO2 SLP308 T10861101 52011

Closest aviation forecast (TAF) to Coyote Run Airport

Forecast is more than 12 hours old.

Closest forecast is Mountain Home Air Force Base, 8.9 nm (16.6 km) WSW.

2023/02/22 18:09 (retrieved 1 year ago)

TAF KMUO 221800Z 2218/2324 30012G20KT 9999 VCSH SCT028 BKN050 BKN080 BKN180 610505 QNH2932INS TEMPO 2218/2224 29020G30KT 8000 -SHSN FEW010 BKN020 BKN050 610208 510009 BECMG 2223/2224 31012G22KT 9999 VCSH SCT030 BKN120 BKN200 QNH2930INS BECMG 2305/2306 12015G25KT 9999 NSW SCT030 BKN060 BKN200 620604 510009 QNH2933INS BECMG 2311/2312 11020G35KT 9999 SCT060 BKN080 620802 520009 QNH2936INS BECMG 2322/2323 13012G22KT 9999 VCSH SCT050 SCT080 BKN120 QNH2938INS TX03/2221Z TNM07/2314Z